KLM246 EHAM-SMJP
Flight info
| Callsign | KLM246 |
|---|---|
| Flight time | N/A |
| Altitude | 36000 |
| Route | IDRID L980 LOGAN DCT SAM N19 ADKIK DCT JOZMA DCT GAPLI/M081F360 DCT OMOKO DCT 45N020W 38N030W/M081F380 33N035W 28N040W/M081F400 24N045W DCT NEZBT/N0464F400 DCT 16N050W 0927N05300W 0730N05400W DCT TODOL |
| Aircraft | B772/H-SDE2E3FGHIJ5LORVWXY/LB1D1 |
Departure
| Time | N/A |
|---|---|
| Airport | Amsterdam Airport Schiphol (EHAM) |
Arrival
| Time | 2026-05-05 15:52 |
|---|---|
| Airport | Johan Adolf Pengel International Airport (SMJP) |
| Time | Latitude | Longitude | Altitude | Speed | Heading |
|---|---|---|---|---|---|
| 2026-05-05 15:22 | 7.21936 | -54.15806 | 38902 ft | 442 kts | 210° |
| 2026-05-05 15:22 | 7.19261 | -54.17311 | 38381 ft | 439 kts | 210° |
| 2026-05-05 15:22 | 7.16633 | -54.18789 | 37823 ft | 436 kts | 210° |
| 2026-05-05 15:22 | 7.14016 | -54.20261 | 37232 ft | 425 kts | 210° |
| 2026-05-05 15:23 | 7.11457 | -54.21701 | 36376 ft | 421 kts | 210° |
| 2026-05-05 15:23 | 7.08904 | -54.23137 | 35586 ft | 417 kts | 209° |
| 2026-05-05 15:23 | 7.06384 | -54.24555 | 34786 ft | 413 kts | 209° |
| 2026-05-05 15:23 | 7.03884 | -54.25962 | 33991 ft | 410 kts | 209° |
| 2026-05-05 15:24 | 7.01399 | -54.27359 | 33187 ft | 405 kts | 209° |
| 2026-05-05 15:24 | 6.98957 | -54.28732 | 32381 ft | 400 kts | 209° |
| 2026-05-05 15:24 | 6.96519 | -54.30102 | 31505 ft | 399 kts | 210° |
| 2026-05-05 15:24 | 6.94133 | -54.31444 | 30781 ft | 394 kts | 210° |
| 2026-05-05 15:25 | 6.91763 | -54.32775 | 30157 ft | 386 kts | 210° |
| 2026-05-05 15:25 | 6.89427 | -54.34088 | 29261 ft | 384 kts | 210° |
| 2026-05-05 15:25 | 6.87091 | -54.35402 | 28421 ft | 381 kts | 210° |
| 2026-05-05 15:25 | 6.84784 | -54.36698 | 27633 ft | 377 kts | 210° |
| 2026-05-05 15:26 | 6.82470 | -54.37999 | 27031 ft | 381 kts | 210° |
| 2026-05-05 15:26 | 6.80167 | -54.39293 | 26618 ft | 378 kts | 210° |
| 2026-05-05 15:26 | 6.77878 | -54.40579 | 26183 ft | 377 kts | 209° |
| 2026-05-05 15:26 | 6.75592 | -54.41864 | 25720 ft | 376 kts | 209° |
| 2026-05-05 15:27 | 6.73308 | -54.43146 | 25292 ft | 375 kts | 209° |
| 2026-05-05 15:27 | 6.71036 | -54.44422 | 24885 ft | 373 kts | 209° |
| 2026-05-05 15:27 | 6.68800 | -54.45678 | 24480 ft | 372 kts | 209° |
| 2026-05-05 15:27 | 6.66546 | -54.46943 | 24084 ft | 370 kts | 209° |
| 2026-05-05 15:28 | 6.64291 | -54.48209 | 23686 ft | 369 kts | 209° |
| 2026-05-05 15:28 | 6.62056 | -54.49464 | 23229 ft | 367 kts | 208° |
| 2026-05-05 15:28 | 6.59826 | -54.50716 | 22808 ft | 365 kts | 208° |
| 2026-05-05 15:28 | 6.57615 | -54.51958 | 22397 ft | 363 kts | 208° |
| 2026-05-05 15:29 | 6.55416 | -54.53192 | 21991 ft | 360 kts | 207° |
| 2026-05-05 15:29 | 6.53237 | -54.54415 | 21591 ft | 358 kts | 207° |
| 2026-05-05 15:29 | 6.51061 | -54.55635 | 21195 ft | 357 kts | 208° |
| 2026-05-05 15:29 | 6.48900 | -54.56848 | 20803 ft | 355 kts | 207° |
| 2026-05-05 15:30 | 6.46738 | -54.58061 | 20415 ft | 354 kts | 208° |
| 2026-05-05 15:30 | 6.44644 | -54.59236 | 20044 ft | 342 kts | 207° |
| 2026-05-05 15:30 | 6.42602 | -54.60382 | 19553 ft | 332 kts | 206° |
| 2026-05-05 15:30 | 6.40602 | -54.61505 | 18929 ft | 327 kts | 206° |
| 2026-05-05 15:31 | 6.38613 | -54.62619 | 18202 ft | 327 kts | 206° |
| 2026-05-05 15:31 | 6.36625 | -54.63733 | 17424 ft | 325 kts | 206° |
| 2026-05-05 15:31 | 6.34657 | -54.64836 | 16738 ft | 321 kts | 206° |
| 2026-05-05 15:31 | 6.32716 | -54.65924 | 16053 ft | 318 kts | 206° |
| 2026-05-05 15:32 | 6.30790 | -54.67004 | 15375 ft | 315 kts | 206° |
| 2026-05-05 15:32 | 6.28884 | -54.68072 | 14727 ft | 312 kts | 206° |
| 2026-05-05 15:32 | 6.26997 | -54.69130 | 14092 ft | 310 kts | 205° |
| 2026-05-05 15:32 | 6.25115 | -54.70185 | 13418 ft | 307 kts | 205° |
| 2026-05-05 15:33 | 6.23258 | -54.71225 | 12771 ft | 304 kts | 205° |
| 2026-05-05 15:33 | 6.21424 | -54.72253 | 12126 ft | 300 kts | 205° |
| 2026-05-05 15:33 | 6.19630 | -54.73257 | 11505 ft | 297 kts | 205° |
| 2026-05-05 15:33 | 6.17829 | -54.74266 | 10862 ft | 296 kts | 205° |
| 2026-05-05 15:34 | 6.16039 | -54.75269 | 10269 ft | 293 kts | 205° |
| 2026-05-05 15:34 | 6.14256 | -54.76267 | 9741 ft | 296 kts | 205° |
| 2026-05-05 15:34 | 6.12463 | -54.77271 | 9448 ft | 293 kts | 205° |
| 2026-05-05 15:34 | 6.10695 | -54.78262 | 9181 ft | 289 kts | 205° |
| 2026-05-05 15:35 | 6.08945 | -54.79243 | 8871 ft | 288 kts | 205° |
| 2026-05-05 15:35 | 6.07197 | -54.80222 | 8561 ft | 286 kts | 205° |
| 2026-05-05 15:35 | 6.05464 | -54.81192 | 8242 ft | 285 kts | 205° |
| 2026-05-05 15:35 | 6.03732 | -54.82161 | 7943 ft | 284 kts | 205° |
| 2026-05-05 15:36 | 6.02011 | -54.83122 | 7661 ft | 282 kts | 204° |
| 2026-05-05 15:36 | 6.00235 | -54.83897 | 7309 ft | 278 kts | 194° |
| 2026-05-05 15:36 | 5.98410 | -54.84464 | 7217 ft | 269 kts | 192° |
| 2026-05-05 15:36 | 5.96658 | -54.84956 | 7235 ft | 257 kts | 187° |
| 2026-05-05 15:37 | 5.94966 | -54.84932 | 7275 ft | 236 kts | 157° |
| 2026-05-05 15:37 | 5.93571 | -54.84170 | 7291 ft | 225 kts | 141° |
| 2026-05-05 15:37 | 5.92157 | -54.83476 | 7281 ft | 234 kts | 165° |
| 2026-05-05 15:37 | 5.90517 | -54.83303 | 7305 ft | 240 kts | 171° |
| 2026-05-05 15:38 | 5.89406 | -54.83205 | 7307 ft | 243 kts | 171° |
| 2026-05-05 15:38 | 5.87728 | -54.83046 | 7289 ft | 241 kts | 170° |
| 2026-05-05 15:38 | 5.86070 | -54.82888 | 7276 ft | 237 kts | 170° |
| 2026-05-05 15:38 | 5.84437 | -54.82736 | 7279 ft | 235 kts | 170° |
| 2026-05-05 15:39 | 5.82805 | -54.82589 | 7287 ft | 236 kts | 170° |
| 2026-05-05 15:39 | 5.81170 | -54.82439 | 7286 ft | 236 kts | 170° |
| 2026-05-05 15:39 | 5.79531 | -54.82323 | 7280 ft | 236 kts | 176° |
| 2026-05-05 15:39 | 5.77878 | -54.82445 | 7288 ft | 240 kts | 181° |
| 2026-05-05 15:40 | 5.76214 | -54.82635 | 7289 ft | 241 kts | 182° |
| 2026-05-05 15:40 | 5.74542 | -54.82828 | 7288 ft | 243 kts | 181° |
| 2026-05-05 15:40 | 5.72863 | -54.83026 | 7293 ft | 243 kts | 182° |
| 2026-05-05 15:40 | 5.71180 | -54.83223 | 7292 ft | 244 kts | 182° |
| 2026-05-05 15:41 | 5.69493 | -54.83423 | 7287 ft | 244 kts | 182° |
| 2026-05-05 15:41 | 5.67804 | -54.83626 | 7289 ft | 244 kts | 182° |
| 2026-05-05 15:41 | 5.66126 | -54.83827 | 7275 ft | 240 kts | 181° |
| 2026-05-05 15:41 | 5.64531 | -54.84026 | 7254 ft | 225 kts | 179° |
| 2026-05-05 15:42 | 5.63090 | -54.83853 | 7305 ft | 198 kts | 154° |
| 2026-05-05 15:42 | 5.61812 | -54.83338 | 7285 ft | 197 kts | 153° |
| 2026-05-05 15:42 | 5.60545 | -54.82835 | 7282 ft | 195 kts | 153° |
| 2026-05-05 15:42 | 5.59283 | -54.82334 | 7278 ft | 195 kts | 153° |
| 2026-05-05 15:43 | 5.58024 | -54.81828 | 7283 ft | 195 kts | 153° |
| 2026-05-05 15:43 | 5.56748 | -54.81374 | 7258 ft | 196 kts | 166° |
| 2026-05-05 15:43 | 5.55369 | -54.81492 | 7317 ft | 204 kts | 185° |
| 2026-05-05 15:43 | 5.53987 | -54.81718 | 7223 ft | 200 kts | 184° |
| 2026-05-05 15:44 | 5.52610 | -54.81948 | 6893 ft | 202 kts | 184° |
| 2026-05-05 15:44 | 5.51246 | -54.82176 | 6595 ft | 197 kts | 184° |
| 2026-05-05 15:44 | 5.49929 | -54.82420 | 6256 ft | 189 kts | 186° |
| 2026-05-05 15:44 | 5.48691 | -54.82805 | 5886 ft | 186 kts | 201° |
| 2026-05-05 15:45 | 5.47550 | -54.83406 | 5543 ft | 184 kts | 204° |
| 2026-05-05 15:45 | 5.46515 | -54.84147 | 5280 ft | 188 kts | 227° |
| 2026-05-05 15:45 | 5.45947 | -54.85329 | 5036 ft | 193 kts | 263° |
| 2026-05-05 15:45 | 5.45908 | -54.86718 | 4744 ft | 210 kts | 270° |
| 2026-05-05 15:46 | 5.45869 | -54.88259 | 4430 ft | 230 kts | 269° |
| 2026-05-05 15:46 | 5.45822 | -54.89859 | 4105 ft | 228 kts | 269° |
| 2026-05-05 15:46 | 5.45778 | -54.91450 | 3855 ft | 222 kts | 269° |
| 2026-05-05 15:46 | 5.45736 | -54.92954 | 3655 ft | 213 kts | 269° |
| 2026-05-05 15:47 | 5.45697 | -54.94386 | 3524 ft | 198 kts | 268° |
| 2026-05-05 15:47 | 5.45661 | -54.95718 | 3421 ft | 185 kts | 268° |
| 2026-05-05 15:47 | 5.45625 | -54.97005 | 3340 ft | 184 kts | 269° |
| 2026-05-05 15:47 | 5.45591 | -54.98298 | 3269 ft | 185 kts | 270° |
| 2026-05-05 15:48 | 5.45557 | -54.99586 | 3185 ft | 185 kts | 269° |
| 2026-05-05 15:48 | 5.45523 | -55.00879 | 3099 ft | 189 kts | 269° |
| 2026-05-05 15:48 | 5.45486 | -55.02208 | 2897 ft | 189 kts | 271° |
| 2026-05-05 15:48 | 5.45451 | -55.03511 | 2670 ft | 182 kts | 270° |
| 2026-05-05 15:49 | 5.45418 | -55.04776 | 2468 ft | 182 kts | 269° |
| 2026-05-05 15:49 | 5.45382 | -55.06052 | 2225 ft | 185 kts | 270° |
| 2026-05-05 15:49 | 5.45348 | -55.07328 | 2079 ft | 176 kts | 270° |
| 2026-05-05 15:49 | 5.45345 | -55.08568 | 2006 ft | 180 kts | 272° |
| 2026-05-05 15:50 | 5.45356 | -55.09847 | 1823 ft | 183 kts | 272° |
| 2026-05-05 15:50 | 5.45350 | -55.11105 | 1701 ft | 185 kts | 271° |
| 2026-05-05 15:50 | 5.45310 | -55.12385 | 1387 ft | 183 kts | 271° |
| 2026-05-05 15:50 | 5.45294 | -55.13661 | 1053 ft | 180 kts | 272° |
| 2026-05-05 15:51 | 5.45298 | -55.14905 | 686 ft | 178 kts | 272° |
| 2026-05-05 15:51 | 5.45297 | -55.16120 | 382 ft | 169 kts | 271° |
| 2026-05-05 15:51 | 5.45294 | -55.17351 | 116 ft | 180 kts | 271° |
| 2026-05-05 15:51 | 5.45289 | -55.18537 | 57 ft | 155 kts | 270° |
| 2026-05-05 15:52 | 5.45283 | -55.19485 | 64 ft | 101 kts | 269° |
| 2026-05-05 15:52 | 5.45280 | -55.19826 | 62 ft | 39 kts | 270° |
| 2026-05-05 15:52 | 5.45288 | -55.20050 | 56 ft | 24 kts | 300° |
| 2026-05-05 15:52 | 5.45410 | -55.20049 | 57 ft | 15 kts | 19° |
| 2026-05-05 15:53 | 5.45445 | -55.19985 | 64 ft | 11 kts | 89° |
| 2026-05-05 15:53 | 5.45445 | -55.19907 | 65 ft | 11 kts | 89° |
| 2026-05-05 15:53 | 5.45446 | -55.19829 | 67 ft | 11 kts | 89° |
| 2026-05-05 15:53 | 5.45454 | -55.19762 | 69 ft | 5 kts | 70° |
| 2026-05-05 15:54 | 5.45480 | -55.19738 | 63 ft | 5 kts | 27° |
| 2026-05-05 15:54 | 5.45519 | -55.19725 | 59 ft | 7 kts | 19° |
| 2026-05-05 15:54 | 5.45562 | -55.19698 | 57 ft | 8 kts | 27° |
| 2026-05-05 15:54 | 5.45590 | -55.19718 | 58 ft | 3 kts | 285° |
| 2026-05-05 15:55 | 5.45589 | -55.19742 | 64 ft | 4 kts | 262° |
| 2026-05-05 15:55 | 5.45588 | -55.19752 | 61 ft | 0 kts | 264° |